sensor_id;sensor_type;location;lat;lon;timestamp;P1;durP1;ratioP1;P2;durP2;ratioP2
25752;SDS011;13600;50.816;4.416;2024-01-06T00:01:41;14.13;;;3.88;;
25752;SDS011;13600;50.816;4.416;2024-01-06T00:04:06;13.50;;;4.00;;
25752;SDS011;13600;50.816;4.416;2024-01-06T00:06:32;10.43;;;4.10;;
25752;SDS011;13600;50.816;4.416;2024-01-06T00:08:58;10.63;;;4.20;;
25752;SDS011;13600;50.816;4.416;2024-01-06T00:11:24;16.35;;;4.38;;
25752;SDS011;13600;50.816;4.416;2024-01-06T00:13:50;10.27;;;4.05;;
25752;SDS011;13600;50.816;4.416;2024-01-06T00:16:19;11.80;;;4.05;;
25752;SDS011;13600;50.816;4.416;2024-01-06T00:18:46;11.82;;;3.90;;
25752;SDS011;13600;50.816;4.416;2024-01-06T00:21:12;13.65;;;4.03;;
25752;SDS011;13600;50.816;4.416;2024-01-06T00:23:39;9.13;;;3.80;;
25752;SDS011;13600;50.816;4.416;2024-01-06T00:26:05;9.75;;;3.30;;
25752;SDS011;13600;50.816;4.416;2024-01-06T00:28:32;8.95;;;3.72;;
25752;SDS011;13600;50.816;4.416;2024-01-06T00:30:57;9.48;;;3.90;;
25752;SDS011;13600;50.816;4.416;2024-01-06T00:33:29;10.02;;;3.47;;
25752;SDS011;13600;50.816;4.416;2024-01-06T00:35:56;9.43;;;3.70;;
25752;SDS011;13600;50.816;4.416;2024-01-06T00:38:23;8.13;;;3.70;;
25752;SDS011;13600;50.816;4.416;2024-01-06T00:40:52;13.60;;;4.13;;
25752;SDS011;13600;50.816;4.416;2024-01-06T00:43:17;9.23;;;3.55;;
25752;SDS011;13600;50.816;4.416;2024-01-06T00:45:43;6.65;;;3.47;;
25752;SDS011;13600;50.816;4.416;2024-01-06T00:48:09;12.45;;;3.50;;
25752;SDS011;13600;50.816;4.416;2024-01-06T00:50:34;7.30;;;3.25;;
25752;SDS011;13600;50.816;4.416;2024-01-06T00:53:00;6.15;;;3.75;;
25752;SDS011;13600;50.816;4.416;2024-01-06T00:55:25;6.40;;;3.25;;
25752;SDS011;13600;50.816;4.416;2024-01-06T00:57:51;7.03;;;3.50;;
25752;SDS011;13600;50.816;4.416;2024-01-06T01:00:17;12.98;;;3.78;;
25752;SDS011;13600;50.816;4.416;2024-01-06T01:02:43;9.00;;;3.80;;
25752;SDS011;13600;50.816;4.416;2024-01-06T01:05:09;8.93;;;3.35;;
25752;SDS011;13600;50.816;4.416;2024-01-06T01:07:34;7.75;;;3.60;;
25752;SDS011;13600;50.816;4.416;2024-01-06T01:10:00;5.75;;;3.20;;
25752;SDS011;13600;50.816;4.416;2024-01-06T01:12:26;8.98;;;3.85;;
25752;SDS011;13600;50.816;4.416;2024-01-06T01:14:52;8.82;;;3.65;;
25752;SDS011;13600;50.816;4.416;2024-01-06T01:17:18;9.77;;;3.78;;
25752;SDS011;13600;50.816;4.416;2024-01-06T01:19:44;10.05;;;4.03;;
25752;SDS011;13600;50.816;4.416;2024-01-06T01:22:10;9.27;;;3.97;;
25752;SDS011;13600;50.816;4.416;2024-01-06T01:24:36;9.45;;;4.07;;
25752;SDS011;13600;50.816;4.416;2024-01-06T01:27:02;10.65;;;4.28;;
25752;SDS011;13600;50.816;4.416;2024-01-06T01:29:27;10.52;;;4.35;;
25752;SDS011;13600;50.816;4.416;2024-01-06T01:31:53;12.13;;;4.85;;
25752;SDS011;13600;50.816;4.416;2024-01-06T01:34:19;13.43;;;4.40;;
25752;SDS011;13600;50.816;4.416;2024-01-06T01:36:44;10.63;;;4.20;;
25752;SDS011;13600;50.816;4.416;2024-01-06T01:39:10;10.57;;;3.75;;
25752;SDS011;13600;50.816;4.416;2024-01-06T01:41:36;8.55;;;4.40;;
25752;SDS011;13600;50.816;4.416;2024-01-06T01:44:02;12.95;;;4.15;;
25752;SDS011;13600;50.816;4.416;2024-01-06T01:46:29;8.90;;;4.32;;
25752;SDS011;13600;50.816;4.416;2024-01-06T01:48:55;9.65;;;3.95;;
25752;SDS011;13600;50.816;4.416;2024-01-06T01:51:23;15.55;;;4.40;;
25752;SDS011;13600;50.816;4.416;2024-01-06T01:53:53;9.57;;;3.60;;
25752;SDS011;13600;50.816;4.416;2024-01-06T01:56:20;6.63;;;3.60;;
25752;SDS011;13600;50.816;4.416;2024-01-06T01:58:46;8.38;;;3.05;;
25752;SDS011;13600;50.816;4.416;2024-01-06T02:01:13;10.80;;;3.30;;
25752;SDS011;13600;50.816;4.416;2024-01-06T02:03:43;8.32;;;2.80;;
25752;SDS011;13600;50.816;4.416;2024-01-06T02:06:08;5.20;;;2.15;;
25752;SDS011;13600;50.816;4.416;2024-01-06T02:08:35;8.10;;;2.63;;
25752;SDS011;13600;50.816;4.416;2024-01-06T02:11:00;5.13;;;2.53;;
25752;SDS011;13600;50.816;4.416;2024-01-06T02:13:32;6.53;;;2.42;;
25752;SDS011;13600;50.816;4.416;2024-01-06T02:15:59;4.97;;;2.40;;
25752;SDS011;13600;50.816;4.416;2024-01-06T02:18:25;4.07;;;2.03;;
25752;SDS011;13600;50.816;4.416;2024-01-06T02:20:51;4.45;;;2.00;;
25752;SDS011;13600;50.816;4.416;2024-01-06T02:23:21;9.77;;;2.53;;
25752;SDS011;13600;50.816;4.416;2024-01-06T02:25:46;5.38;;;2.42;;
25752;SDS011;13600;50.816;4.416;2024-01-06T02:28:12;5.10;;;2.05;;
25752;SDS011;13600;50.816;4.416;2024-01-06T02:30:38;3.55;;;1.80;;
25752;SDS011;13600;50.816;4.416;2024-01-06T02:33:03;2.67;;;1.80;;
25752;SDS011;13600;50.816;4.416;2024-01-06T02:35:29;3.35;;;1.70;;
25752;SDS011;13600;50.816;4.416;2024-01-06T02:37:55;3.92;;;1.58;;
25752;SDS011;13600;50.816;4.416;2024-01-06T02:40:20;3.88;;;1.83;;
25752;SDS011;13600;50.816;4.416;2024-01-06T02:42:46;3.10;;;1.80;;
25752;SDS011;13600;50.816;4.416;2024-01-06T02:45:11;3.83;;;1.80;;
25752;SDS011;13600;50.816;4.416;2024-01-06T02:47:37;4.97;;;1.63;;
25752;SDS011;13600;50.816;4.416;2024-01-06T02:50:03;3.28;;;1.77;;
25752;SDS011;13600;50.816;4.416;2024-01-06T02:52:30;2.30;;;1.60;;
25752;SDS011;13600;50.816;4.416;2024-01-06T02:54:55;4.53;;;1.92;;
25752;SDS011;13600;50.816;4.416;2024-01-06T02:57:21;4.07;;;2.00;;
25752;SDS011;13600;50.816;4.416;2024-01-06T02:59:46;2.40;;;1.80;;
25752;SDS011;13600;50.816;4.416;2024-01-06T03:02:12;3.33;;;1.85;;
25752;SDS011;13600;50.816;4.416;2024-01-06T03:04:38;4.63;;;2.20;;
25752;SDS011;13600;50.816;4.416;2024-01-06T03:07:06;4.10;;;2.17;;
25752;SDS011;13600;50.816;4.416;2024-01-06T03:09:31;3.92;;;2.60;;
25752;SDS011;13600;50.816;4.416;2024-01-06T03:11:57;4.88;;;2.58;;
25752;SDS011;13600;50.816;4.416;2024-01-06T03:14:23;2.42;;;2.17;;
25752;SDS011;13600;50.816;4.416;2024-01-06T03:16:48;3.80;;;2.17;;
25752;SDS011;13600;50.816;4.416;2024-01-06T03:19:14;2.92;;;2.28;;
25752;SDS011;13600;50.816;4.416;2024-01-06T03:21:40;6.05;;;2.60;;
25752;SDS011;13600;50.816;4.416;2024-01-06T03:24:06;4.18;;;2.40;;
25752;SDS011;13600;50.816;4.416;2024-01-06T03:26:34;3.25;;;2.42;;
25752;SDS011;13600;50.816;4.416;2024-01-06T03:28:59;3.22;;;2.60;;
25752;SDS011;13600;50.816;4.416;2024-01-06T03:31:27;3.78;;;2.40;;
25752;SDS011;13600;50.816;4.416;2024-01-06T03:33:53;5.32;;;2.70;;
25752;SDS011;13600;50.816;4.416;2024-01-06T03:36:21;3.95;;;2.80;;
25752;SDS011;13600;50.816;4.416;2024-01-06T03:38:48;5.68;;;3.25;;
25752;SDS011;13600;50.816;4.416;2024-01-06T03:41:13;6.90;;;3.65;;
25752;SDS011;13600;50.816;4.416;2024-01-06T03:43:39;5.32;;;3.70;;
25752;SDS011;13600;50.816;4.416;2024-01-06T03:46:05;7.07;;;4.40;;
25752;SDS011;13600;50.816;4.416;2024-01-06T03:48:31;5.93;;;4.53;;
25752;SDS011;13600;50.816;4.416;2024-01-06T03:50:57;6.80;;;5.30;;
25752;SDS011;13600;50.816;4.416;2024-01-06T03:53:24;11.32;;;6.57;;
25752;SDS011;13600;50.816;4.416;2024-01-06T03:55:50;15.40;;;6.63;;
25752;SDS011;13600;50.816;4.416;2024-01-06T03:58:17;11.95;;;7.03;;
25752;SDS011;13600;50.816;4.416;2024-01-06T04:00:42;16.33;;;8.02;;
25752;SDS011;13600;50.816;4.416;2024-01-06T04:03:08;15.77;;;8.27;;
25752;SDS011;13600;50.816;4.416;2024-01-06T04:05:35;16.73;;;8.45;;
25752;SDS011;13600;50.816;4.416;2024-01-06T04:08:01;13.13;;;8.95;;
25752;SDS011;13600;50.816;4.416;2024-01-06T04:10:26;17.15;;;9.88;;
25752;SDS011;13600;50.816;4.416;2024-01-06T04:12:52;15.50;;;9.63;;
25752;SDS011;13600;50.816;4.416;2024-01-06T04:15:17;14.27;;;9.82;;
25752;SDS011;13600;50.816;4.416;2024-01-06T04:17:46;20.38;;;10.82;;
25752;SDS011;13600;50.816;4.416;2024-01-06T04:20:13;16.75;;;11.05;;
25752;SDS011;13600;50.816;4.416;2024-01-06T04:22:39;17.35;;;11.27;;
25752;SDS011;13600;50.816;4.416;2024-01-06T04:25:04;19.60;;;12.02;;
25752;SDS011;13600;50.816;4.416;2024-01-06T04:27:30;21.83;;;11.98;;
25752;SDS011;13600;50.816;4.416;2024-01-06T04:29:56;24.00;;;12.85;;
25752;SDS011;13600;50.816;4.416;2024-01-06T04:32:22;18.13;;;11.10;;
25752;SDS011;13600;50.816;4.416;2024-01-06T04:34:47;19.63;;;13.18;;
25752;SDS011;13600;50.816;4.416;2024-01-06T04:37:13;22.38;;;12.10;;
25752;SDS011;13600;50.816;4.416;2024-01-06T04:39:39;23.58;;;12.48;;
25752;SDS011;13600;50.816;4.416;2024-01-06T04:42:05;21.45;;;12.57;;
25752;SDS011;13600;50.816;4.416;2024-01-06T04:44:31;23.55;;;12.38;;
25752;SDS011;13600;50.816;4.416;2024-01-06T04:46:57;18.45;;;11.02;;
25752;SDS011;13600;50.816;4.416;2024-01-06T04:49:22;25.90;;;11.90;;
25752;SDS011;13600;50.816;4.416;2024-01-06T04:51:48;23.60;;;12.45;;
25752;SDS011;13600;50.816;4.416;2024-01-06T04:54:13;19.27;;;12.70;;
25752;SDS011;13600;50.816;4.416;2024-01-06T04:56:39;20.13;;;12.25;;
25752;SDS011;13600;50.816;4.416;2024-01-06T04:59:05;20.55;;;11.80;;
25752;SDS011;13600;50.816;4.416;2024-01-06T05:01:31;21.73;;;11.93;;
25752;SDS011;13600;50.816;4.416;2024-01-06T05:03:57;19.23;;;11.65;;
25752;SDS011;13600;50.816;4.416;2024-01-06T05:06:24;20.45;;;11.77;;
25752;SDS011;13600;50.816;4.416;2024-01-06T05:08:50;17.42;;;11.65;;
25752;SDS011;13600;50.816;4.416;2024-01-06T05:11:15;18.75;;;11.48;;
25752;SDS011;13600;50.816;4.416;2024-01-06T05:13:41;16.95;;;10.75;;
25752;SDS011;13600;50.816;4.416;2024-01-06T05:16:07;20.05;;;10.30;;
25752;SDS011;13600;50.816;4.416;2024-01-06T05:18:34;16.05;;;9.70;;
25752;SDS011;13600;50.816;4.416;2024-01-06T05:21:00;19.60;;;10.50;;
25752;SDS011;13600;50.816;4.416;2024-01-06T05:23:26;22.23;;;10.30;;
25752;SDS011;13600;50.816;4.416;2024-01-06T05:25:52;20.90;;;10.65;;
25752;SDS011;13600;50.816;4.416;2024-01-06T05:28:18;20.35;;;10.40;;
25752;SDS011;13600;50.816;4.416;2024-01-06T05:30:45;20.30;;;10.63;;
25752;SDS011;13600;50.816;4.416;2024-01-06T05:33:11;18.63;;;10.25;;
25752;SDS011;13600;50.816;4.416;2024-01-06T05:35:38;30.63;;;10.73;;
25752;SDS011;13600;50.816;4.416;2024-01-06T05:38:04;21.15;;;10.63;;
25752;SDS011;13600;50.816;4.416;2024-01-06T05:40:30;17.08;;;10.55;;
25752;SDS011;13600;50.816;4.416;2024-01-06T05:42:55;19.95;;;10.20;;
25752;SDS011;13600;50.816;4.416;2024-01-06T05:45:22;20.25;;;10.35;;
25752;SDS011;13600;50.816;4.416;2024-01-06T05:47:47;13.93;;;8.65;;
25752;SDS011;13600;50.816;4.416;2024-01-06T05:50:15;15.50;;;8.90;;
25752;SDS011;13600;50.816;4.416;2024-01-06T05:52:41;19.35;;;9.65;;
25752;SDS011;13600;50.816;4.416;2024-01-06T05:55:07;18.35;;;8.85;;
25752;SDS011;13600;50.816;4.416;2024-01-06T05:57:34;19.60;;;9.25;;
25752;SDS011;13600;50.816;4.416;2024-01-06T06:00:00;16.25;;;9.07;;
25752;SDS011;13600;50.816;4.416;2024-01-06T06:02:25;17.48;;;9.75;;
25752;SDS011;13600;50.816;4.416;2024-01-06T06:04:51;16.95;;;9.38;;
25752;SDS011;13600;50.816;4.416;2024-01-06T06:07:18;17.65;;;9.57;;
25752;SDS011;13600;50.816;4.416;2024-01-06T06:09:45;23.55;;;10.20;;
25752;SDS011;13600;50.816;4.416;2024-01-06T06:12:15;18.23;;;9.75;;
25752;SDS011;13600;50.816;4.416;2024-01-06T06:14:41;21.58;;;10.80;;
25752;SDS011;13600;50.816;4.416;2024-01-06T06:17:07;17.90;;;10.43;;
25752;SDS011;13600;50.816;4.416;2024-01-06T06:19:33;27.20;;;10.98;;
25752;SDS011;13600;50.816;4.416;2024-01-06T06:21:59;22.42;;;9.82;;
25752;SDS011;13600;50.816;4.416;2024-01-06T06:24:24;16.75;;;10.18;;
25752;SDS011;13600;50.816;4.416;2024-01-06T06:26:50;19.30;;;9.45;;
25752;SDS011;13600;50.816;4.416;2024-01-06T06:29:16;16.65;;;8.68;;
25752;SDS011;13600;50.816;4.416;2024-01-06T06:31:41;21.08;;;8.82;;
25752;SDS011;13600;50.816;4.416;2024-01-06T06:34:11;21.23;;;8.45;;
25752;SDS011;13600;50.816;4.416;2024-01-06T06:36:37;14.30;;;8.02;;
25752;SDS011;13600;50.816;4.416;2024-01-06T06:39:03;14.02;;;7.93;;
25752;SDS011;13600;50.816;4.416;2024-01-06T06:41:29;18.85;;;6.90;;
25752;SDS011;13600;50.816;4.416;2024-01-06T06:43:55;12.70;;;7.30;;
25752;SDS011;13600;50.816;4.416;2024-01-06T06:46:22;14.80;;;7.95;;
25752;SDS011;13600;50.816;4.416;2024-01-06T06:48:49;12.23;;;7.03;;
25752;SDS011;13600;50.816;4.416;2024-01-06T06:51:15;16.67;;;7.78;;
25752;SDS011;13600;50.816;4.416;2024-01-06T06:53:41;23.90;;;8.38;;
25752;SDS011;13600;50.816;4.416;2024-01-06T06:56:07;14.07;;;7.05;;
25752;SDS011;13600;50.816;4.416;2024-01-06T06:58:33;16.75;;;7.93;;
25752;SDS011;13600;50.816;4.416;2024-01-06T07:00:58;16.33;;;7.90;;
25752;SDS011;13600;50.816;4.416;2024-01-06T07:03:24;16.05;;;7.88;;
25752;SDS011;13600;50.816;4.416;2024-01-06T07:05:52;16.58;;;8.25;;
25752;SDS011;13600;50.816;4.416;2024-01-06T07:08:17;15.90;;;8.73;;
25752;SDS011;13600;50.816;4.416;2024-01-06T07:10:43;20.20;;;8.13;;
25752;SDS011;13600;50.816;4.416;2024-01-06T07:13:09;14.68;;;8.75;;
25752;SDS011;13600;50.816;4.416;2024-01-06T07:15:34;16.77;;;9.38;;
25752;SDS011;13600;50.816;4.416;2024-01-06T07:18:00;14.20;;;8.60;;
25752;SDS011;13600;50.816;4.416;2024-01-06T07:20:25;17.98;;;9.90;;
25752;SDS011;13600;50.816;4.416;2024-01-06T07:22:51;21.83;;;11.13;;
25752;SDS011;13600;50.816;4.416;2024-01-06T07:25:17;13.90;;;9.70;;
25752;SDS011;13600;50.816;4.416;2024-01-06T07:27:42;17.67;;;9.57;;
25752;SDS011;13600;50.816;4.416;2024-01-06T07:30:08;17.17;;;9.40;;
25752;SDS011;13600;50.816;4.416;2024-01-06T07:32:34;18.17;;;10.15;;
25752;SDS011;13600;50.816;4.416;2024-01-06T07:35:01;19.92;;;10.43;;
25752;SDS011;13600;50.816;4.416;2024-01-06T07:37:27;18.10;;;10.85;;
25752;SDS011;13600;50.816;4.416;2024-01-06T07:39:53;21.08;;;11.50;;
25752;SDS011;13600;50.816;4.416;2024-01-06T07:42:19;19.13;;;11.25;;
25752;SDS011;13600;50.816;4.416;2024-01-06T07:44:44;25.00;;;11.65;;
25752;SDS011;13600;50.816;4.416;2024-01-06T07:47:10;22.45;;;11.82;;
25752;SDS011;13600;50.816;4.416;2024-01-06T07:49:36;19.98;;;11.13;;
25752;SDS011;13600;50.816;4.416;2024-01-06T07:52:01;17.30;;;10.68;;
25752;SDS011;13600;50.816;4.416;2024-01-06T07:54:27;16.27;;;10.40;;
25752;SDS011;13600;50.816;4.416;2024-01-06T07:56:53;23.10;;;12.32;;
25752;SDS011;13600;50.816;4.416;2024-01-06T07:59:20;19.83;;;11.68;;
25752;SDS011;13600;50.816;4.416;2024-01-06T08:01:47;19.02;;;12.18;;
25752;SDS011;13600;50.816;4.416;2024-01-06T08:04:12;18.00;;;11.40;;
25752;SDS011;13600;50.816;4.416;2024-01-06T08:06:38;18.45;;;11.40;;
25752;SDS011;13600;50.816;4.416;2024-01-06T08:09:04;20.52;;;10.68;;
25752;SDS011;13600;50.816;4.416;2024-01-06T08:11:29;19.88;;;11.10;;
25752;SDS011;13600;50.816;4.416;2024-01-06T08:13:55;17.65;;;10.85;;
25752;SDS011;13600;50.816;4.416;2024-01-06T08:16:21;18.17;;;9.95;;
25752;SDS011;13600;50.816;4.416;2024-01-06T08:18:47;17.67;;;10.45;;
25752;SDS011;13600;50.816;4.416;2024-01-06T08:21:12;18.83;;;9.52;;
25752;SDS011;13600;50.816;4.416;2024-01-06T08:23:38;15.07;;;8.73;;
25752;SDS011;13600;50.816;4.416;2024-01-06T08:26:05;16.15;;;8.60;;
25752;SDS011;13600;50.816;4.416;2024-01-06T08:28:32;16.70;;;8.98;;
25752;SDS011;13600;50.816;4.416;2024-01-06T08:30:57;15.68;;;7.80;;
25752;SDS011;13600;50.816;4.416;2024-01-06T08:33:23;13.65;;;7.75;;
25752;SDS011;13600;50.816;4.416;2024-01-06T08:35:49;15.70;;;8.75;;
25752;SDS011;13600;50.816;4.416;2024-01-06T08:38:15;15.98;;;9.20;;
25752;SDS011;13600;50.816;4.416;2024-01-06T08:40:41;17.60;;;9.55;;
25752;SDS011;13600;50.816;4.416;2024-01-06T08:43:07;19.30;;;9.90;;
25752;SDS011;13600;50.816;4.416;2024-01-06T08:45:32;19.27;;;10.68;;
25752;SDS011;13600;50.816;4.416;2024-01-06T08:47:58;16.90;;;10.45;;
25752;SDS011;13600;50.816;4.416;2024-01-06T08:50:23;17.38;;;10.43;;
25752;SDS011;13600;50.816;4.416;2024-01-06T08:52:50;20.40;;;9.82;;
25752;SDS011;13600;50.816;4.416;2024-01-06T08:55:16;15.15;;;9.60;;
25752;SDS011;13600;50.816;4.416;2024-01-06T08:57:42;15.50;;;9.43;;
25752;SDS011;13600;50.816;4.416;2024-01-06T09:00:07;15.13;;;8.88;;
25752;SDS011;13600;50.816;4.416;2024-01-06T09:02:35;17.50;;;9.25;;
25752;SDS011;13600;50.816;4.416;2024-01-06T09:05:01;19.77;;;9.40;;
25752;SDS011;13600;50.816;4.416;2024-01-06T09:07:26;13.80;;;8.73;;
25752;SDS011;13600;50.816;4.416;2024-01-06T09:09:52;15.38;;;9.00;;
25752;SDS011;13600;50.816;4.416;2024-01-06T09:12:17;13.05;;;8.82;;
25752;SDS011;13600;50.816;4.416;2024-01-06T09:14:43;15.25;;;8.95;;
25752;SDS011;13600;50.816;4.416;2024-01-06T09:17:09;14.55;;;8.98;;
25752;SDS011;13600;50.816;4.416;2024-01-06T09:19:34;17.83;;;8.50;;
25752;SDS011;13600;50.816;4.416;2024-01-06T09:22:00;15.07;;;7.90;;
25752;SDS011;13600;50.816;4.416;2024-01-06T09:24:26;14.85;;;9.05;;
25752;SDS011;13600;50.816;4.416;2024-01-06T09:26:51;17.17;;;8.98;;
25752;SDS011;13600;50.816;4.416;2024-01-06T09:29:17;17.05;;;10.50;;
25752;SDS011;13600;50.816;4.416;2024-01-06T09:31:43;17.30;;;10.00;;
25752;SDS011;13600;50.816;4.416;2024-01-06T09:34:10;14.18;;;7.80;;
25752;SDS011;13600;50.816;4.416;2024-01-06T09:36:37;13.73;;;8.18;;
25752;SDS011;13600;50.816;4.416;2024-01-06T09:39:03;12.88;;;7.90;;
25752;SDS011;13600;50.816;4.416;2024-01-06T09:41:29;12.25;;;7.75;;
25752;SDS011;13600;50.816;4.416;2024-01-06T09:43:56;17.08;;;11.18;;
25752;SDS011;13600;50.816;4.416;2024-01-06T09:46:25;18.02;;;9.55;;
25752;SDS011;13600;50.816;4.416;2024-01-06T09:48:55;15.10;;;8.30;;
25752;SDS011;13600;50.816;4.416;2024-01-06T09:51:22;13.60;;;6.65;;
25752;SDS011;13600;50.816;4.416;2024-01-06T09:56:21;14.73;;;8.25;;
25752;SDS011;13600;50.816;4.416;2024-01-06T09:58:49;12.93;;;7.00;;
25752;SDS011;13600;50.816;4.416;2024-01-06T10:01:16;14.88;;;8.65;;
25752;SDS011;13600;50.816;4.416;2024-01-06T10:03:43;24.23;;;10.90;;
25752;SDS011;13600;50.816;4.416;2024-01-06T10:06:11;15.40;;;7.82;;
25752;SDS011;13600;50.816;4.416;2024-01-06T10:08:38;12.13;;;7.40;;
25752;SDS011;13600;50.816;4.416;2024-01-06T10:11:05;15.15;;;9.25;;
25752;SDS011;13600;50.816;4.416;2024-01-06T10:13:35;17.23;;;9.65;;
25752;SDS011;13600;50.816;4.416;2024-01-06T10:16:03;27.27;;;15.70;;
25752;SDS011;13600;50.816;4.416;2024-01-06T10:18:30;18.35;;;8.93;;
25752;SDS011;13600;50.816;4.416;2024-01-06T10:20:58;12.32;;;7.43;;
25752;SDS011;13600;50.816;4.416;2024-01-06T10:23:28;21.55;;;13.05;;
25752;SDS011;13600;50.816;4.416;2024-01-06T10:25:54;15.65;;;9.10;;
25752;SDS011;13600;50.816;4.416;2024-01-06T10:28:21;16.05;;;7.60;;
25752;SDS011;13600;50.816;4.416;2024-01-06T10:30:48;18.88;;;11.32;;
25752;SDS011;13600;50.816;4.416;2024-01-06T10:33:16;13.98;;;7.78;;
25752;SDS011;13600;50.816;4.416;2024-01-06T10:35:42;16.00;;;9.07;;
25752;SDS011;13600;50.816;4.416;2024-01-06T10:38:07;15.00;;;9.55;;
25752;SDS011;13600;50.816;4.416;2024-01-06T10:40:33;14.25;;;9.18;;
25752;SDS011;13600;50.816;4.416;2024-01-06T10:42:59;22.52;;;10.98;;
25752;SDS011;13600;50.816;4.416;2024-01-06T10:45:26;17.55;;;10.65;;
25752;SDS011;13600;50.816;4.416;2024-01-06T10:47:53;56.08;;;26.35;;
25752;SDS011;13600;50.816;4.416;2024-01-06T10:50:20;18.55;;;10.98;;
25752;SDS011;13600;50.816;4.416;2024-01-06T10:52:47;22.52;;;9.55;;
25752;SDS011;13600;50.816;4.416;2024-01-06T10:55:14;12.13;;;8.38;;
25752;SDS011;13600;50.816;4.416;2024-01-06T10:57:45;12.20;;;7.18;;
25752;SDS011;13600;50.816;4.416;2024-01-06T11:00:13;15.18;;;8.10;;
25752;SDS011;13600;50.816;4.416;2024-01-06T11:02:39;13.30;;;7.53;;
25752;SDS011;13600;50.816;4.416;2024-01-06T11:05:07;15.80;;;8.90;;
25752;SDS011;13600;50.816;4.416;2024-01-06T11:07:35;14.43;;;8.45;;
25752;SDS011;13600;50.816;4.416;2024-01-06T11:10:12;14.63;;;8.57;;
25752;SDS011;13600;50.816;4.416;2024-01-06T11:12:44;13.43;;;8.45;;
25752;SDS011;13600;50.816;4.416;2024-01-06T11:15:09;12.65;;;8.05;;
25752;SDS011;13600;50.816;4.416;2024-01-06T11:17:51;13.75;;;7.45;;
25752;SDS011;13600;50.816;4.416;2024-01-06T11:20:23;14.63;;;8.48;;
25752;SDS011;13600;50.816;4.416;2024-01-06T11:22:52;13.88;;;7.38;;
25752;SDS011;13600;50.816;4.416;2024-01-06T11:25:21;14.30;;;7.75;;
25752;SDS011;13600;50.816;4.416;2024-01-06T11:27:47;10.55;;;6.95;;
25752;SDS011;13600;50.816;4.416;2024-01-06T11:30:21;12.18;;;7.82;;
25752;SDS011;13600;50.816;4.416;2024-01-06T11:32:48;10.10;;;6.63;;
25752;SDS011;13600;50.816;4.416;2024-01-06T11:35:17;11.95;;;7.00;;
25752;SDS011;13600;50.816;4.416;2024-01-06T11:43:06;14.68;;;8.90;;
25752;SDS011;13600;50.816;4.416;2024-01-06T11:45:32;16.58;;;9.23;;
25752;SDS011;13600;50.816;4.416;2024-01-06T11:48:05;11.80;;;7.97;;
25752;SDS011;13600;50.816;4.416;2024-01-06T11:50:33;15.40;;;8.15;;
25752;SDS011;13600;50.816;4.416;2024-01-06T11:53:04;12.07;;;8.35;;
25752;SDS011;13600;50.816;4.416;2024-01-06T11:55:31;11.98;;;7.30;;
25752;SDS011;13600;50.816;4.416;2024-01-06T11:57:57;14.30;;;8.10;;
25752;SDS011;13600;50.816;4.416;2024-01-06T12:00:31;11.45;;;7.97;;
25752;SDS011;13600;50.816;4.416;2024-01-06T12:03:04;15.57;;;9.25;;
25752;SDS011;13600;50.816;4.416;2024-01-06T12:05:30;14.55;;;9.27;;
25752;SDS011;13600;50.816;4.416;2024-01-06T12:07:57;13.88;;;8.45;;
25752;SDS011;13600;50.816;4.416;2024-01-06T12:10:25;15.60;;;9.35;;
25752;SDS011;13600;50.816;4.416;2024-01-06T12:12:59;15.32;;;10.48;;
25752;SDS011;13600;50.816;4.416;2024-01-06T12:15:27;14.50;;;9.75;;
25752;SDS011;13600;50.816;4.416;2024-01-06T12:17:54;14.52;;;9.50;;
25752;SDS011;13600;50.816;4.416;2024-01-06T12:22:51;14.02;;;8.65;;
25752;SDS011;13600;50.816;4.416;2024-01-06T12:25:18;16.50;;;10.30;;
25752;SDS011;13600;50.816;4.416;2024-01-06T12:27:46;11.70;;;7.75;;
25752;SDS011;13600;50.816;4.416;2024-01-06T12:30:21;22.02;;;12.25;;
25752;SDS011;13600;50.816;4.416;2024-01-06T12:32:49;18.83;;;10.45;;
25752;SDS011;13600;50.816;4.416;2024-01-06T12:35:22;12.80;;;8.05;;
25752;SDS011;13600;50.816;4.416;2024-01-06T12:37:49;13.63;;;7.90;;
25752;SDS011;13600;50.816;4.416;2024-01-06T12:40:16;9.85;;;6.68;;
25752;SDS011;13600;50.816;4.416;2024-01-06T12:42:44;9.05;;;6.20;;
25752;SDS011;13600;50.816;4.416;2024-01-06T12:45:11;13.10;;;7.50;;
25752;SDS011;13600;50.816;4.416;2024-01-06T12:47:37;13.57;;;7.72;;
25752;SDS011;13600;50.816;4.416;2024-01-06T12:50:04;13.02;;;8.15;;
25752;SDS011;13600;50.816;4.416;2024-01-06T12:52:31;13.82;;;9.40;;
25752;SDS011;13600;50.816;4.416;2024-01-06T12:54:58;10.88;;;7.10;;
25752;SDS011;13600;50.816;4.416;2024-01-06T12:57:24;10.73;;;5.95;;
25752;SDS011;13600;50.816;4.416;2024-01-06T12:59:50;12.13;;;6.68;;
25752;SDS011;13600;50.816;4.416;2024-01-06T13:02:16;12.13;;;6.53;;
25752;SDS011;13600;50.816;4.416;2024-01-06T13:04:41;20.27;;;9.75;;
25752;SDS011;13600;50.816;4.416;2024-01-06T13:07:08;33.15;;;16.48;;
25752;SDS011;13600;50.816;4.416;2024-01-06T13:09:34;11.75;;;6.65;;
25752;SDS011;13600;50.816;4.416;2024-01-06T13:12:00;15.93;;;9.05;;
25752;SDS011;13600;50.816;4.416;2024-01-06T13:14:29;13.90;;;8.77;;
25752;SDS011;13600;50.816;4.416;2024-01-06T13:16:56;11.18;;;8.65;;
25752;SDS011;13600;50.816;4.416;2024-01-06T13:19:22;12.68;;;6.85;;
25752;SDS011;13600;50.816;4.416;2024-01-06T13:21:48;12.43;;;6.47;;
25752;SDS011;13600;50.816;4.416;2024-01-06T13:24:14;12.85;;;6.18;;
25752;SDS011;13600;50.816;4.416;2024-01-06T13:26:40;11.95;;;7.15;;
25752;SDS011;13600;50.816;4.416;2024-01-06T13:29:06;8.35;;;6.30;;
25752;SDS011;13600;50.816;4.416;2024-01-06T13:31:32;14.48;;;8.05;;
25752;SDS011;13600;50.816;4.416;2024-01-06T13:33:58;9.32;;;6.07;;
25752;SDS011;13600;50.816;4.416;2024-01-06T13:36:24;11.05;;;6.90;;
25752;SDS011;13600;50.816;4.416;2024-01-06T13:38:49;11.30;;;7.30;;
25752;SDS011;13600;50.816;4.416;2024-01-06T13:41:15;9.07;;;5.35;;
25752;SDS011;13600;50.816;4.416;2024-01-06T13:43:41;9.90;;;5.53;;
25752;SDS011;13600;50.816;4.416;2024-01-06T13:46:07;11.60;;;5.43;;
25752;SDS011;13600;50.816;4.416;2024-01-06T13:48:32;7.80;;;5.00;;
25752;SDS011;13600;50.816;4.416;2024-01-06T13:50:58;10.45;;;5.40;;
25752;SDS011;13600;50.816;4.416;2024-01-06T13:53:24;10.60;;;5.43;;
25752;SDS011;13600;50.816;4.416;2024-01-06T13:55:50;11.95;;;6.03;;
25752;SDS011;13600;50.816;4.416;2024-01-06T13:58:16;10.18;;;6.55;;
25752;SDS011;13600;50.816;4.416;2024-01-06T14:00:42;10.45;;;6.82;;
25752;SDS011;13600;50.816;4.416;2024-01-06T14:03:09;12.43;;;7.30;;
25752;SDS011;13600;50.816;4.416;2024-01-06T14:05:35;14.07;;;7.68;;
25752;SDS011;13600;50.816;4.416;2024-01-06T14:08:02;14.50;;;7.25;;
25752;SDS011;13600;50.816;4.416;2024-01-06T14:10:27;12.50;;;7.60;;
25752;SDS011;13600;50.816;4.416;2024-01-06T14:12:53;12.18;;;7.63;;
25752;SDS011;13600;50.816;4.416;2024-01-06T14:15:20;13.82;;;7.65;;
25752;SDS011;13600;50.816;4.416;2024-01-06T14:17:46;13.82;;;7.18;;
25752;SDS011;13600;50.816;4.416;2024-01-06T14:20:16;10.10;;;6.53;;
25752;SDS011;13600;50.816;4.416;2024-01-06T14:22:44;12.02;;;6.97;;
25752;SDS011;13600;50.816;4.416;2024-01-06T14:25:10;9.82;;;6.13;;
25752;SDS011;13600;50.816;4.416;2024-01-06T14:27:37;10.82;;;6.60;;
25752;SDS011;13600;50.816;4.416;2024-01-06T14:30:02;9.88;;;6.63;;
25752;SDS011;13600;50.816;4.416;2024-01-06T14:32:28;10.18;;;6.68;;
25752;SDS011;13600;50.816;4.416;2024-01-06T14:34:54;11.13;;;6.00;;
25752;SDS011;13600;50.816;4.416;2024-01-06T14:37:20;10.68;;;6.15;;
25752;SDS011;13600;50.816;4.416;2024-01-06T14:39:46;10.57;;;6.00;;